KDUA/DUA METAR and TAF weather

Enter ICAO airport designator
Station Type Date Time Source
KDUA METAR 2019/04/25 01:55 UTC NOAA

KDUA 250155Z AUTO 11003KT 10SM -RA SCT016 SCT031 OVC100 16/15 A2984 RMK AO2


Station Type Date Time Source
KDUA Decoded METAR 2019/04/25 01:55 UTC NOAA

Durant, Eaker Field Airport, OK, United States (KDUA) 33-56-32N 096-23-40W
Apr 24, 2019 - 09:55 PM EDT / 2019.04.25 0155 UTC
Wind: from the ESE (110 degrees) at 3 MPH (3 KT):0
Visibility: 10 mile(s):0
Sky conditions: overcast
Weather: light rain
Temperature: 60 F (16 C)
Dew Point: 59 F (15 C)
Relative Humidity: 93%
Pressure (altimeter): 29.84 in. Hg (1010 hPa)
ob: KDUA 250155Z AUTO 11003KT 10SM -RA SCT016 SCT031 OVC100 16/15 A2984 RMK AO2
cycle: 2

Station Type Date Time Source
KDUA TAF UTC NOAA

Error!

Example: see airport list